createdAt,value
2023-03-11T00:18:09.110Z,11.60
2023-03-11T00:20:39.826Z,12.80
2023-03-11T00:23:09.085Z,11.70
2023-03-11T00:25:39.156Z,11.00
2023-03-11T00:28:07.615Z,11.90
2023-03-11T00:30:35.985Z,10.80
2023-03-11T00:33:04.295Z,10.60
2023-03-11T00:35:34.139Z,10.30
2023-03-11T00:38:08.118Z,10.20
2023-03-11T00:40:36.715Z,10.50
2023-03-11T00:43:04.869Z,10.00
2023-03-11T00:45:35.125Z,9.20
2023-03-11T00:48:03.487Z,11.20
2023-03-11T00:50:33.894Z,9.50
2023-03-11T00:53:03.091Z,9.60
2023-03-11T00:55:33.451Z,8.80
2023-03-11T00:58:05.486Z,9.90
2023-03-11T01:03:08.691Z,10.30
2023-03-11T01:05:36.678Z,9.60
2023-03-11T01:08:05.342Z,10.20
2023-03-11T01:10:34.382Z,10.50
2023-03-11T01:13:03.440Z,10.30
2023-03-11T01:15:35.060Z,10.70
2023-03-11T01:18:04.702Z,9.70
2023-03-11T01:20:35.237Z,8.80
2023-03-11T01:23:03.406Z,8.50
2023-03-11T01:25:31.327Z,8.30
2023-03-11T01:28:00.153Z,8.90
2023-03-11T01:30:30.260Z,7.60
2023-03-11T01:32:58.573Z,8.30
2023-03-11T01:35:28.864Z,7.50
2023-03-11T01:37:57.956Z,7.90
2023-03-11T01:40:32.171Z,7.80
2023-03-11T01:43:06.182Z,8.80
2023-03-11T01:45:49.731Z,7.80
2023-03-11T01:48:20.064Z,7.80
2023-03-11T01:50:50.795Z,7.50
2023-03-11T01:53:18.815Z,7.70
2023-03-11T01:55:48.475Z,7.20
2023-03-11T01:58:23.792Z,7.80
2023-03-11T02:00:52.890Z,7.40
2023-03-11T02:03:34.067Z,7.60
2023-03-11T02:06:06.980Z,7.20
2023-03-11T02:08:35.856Z,8.00
2023-03-11T02:11:08.531Z,6.90
2023-03-11T02:13:37.517Z,7.60
2023-03-11T02:16:06.053Z,8.00
2023-03-11T02:18:34.380Z,7.80
2023-03-11T02:21:24.264Z,7.30
2023-03-11T02:24:16.193Z,8.10
2023-03-11T02:26:52.966Z,7.10
2023-03-11T02:29:23.187Z,7.60
2023-03-11T02:33:00.010Z,7.20
2023-03-11T02:35:30.165Z,8.10
2023-03-11T02:37:58.508Z,7.80
2023-03-11T02:40:52.150Z,8.10
2023-03-11T02:43:27.651Z,7.70
2023-03-11T02:45:56.801Z,7.20
2023-03-11T02:48:25.457Z,7.90
2023-03-11T02:50:53.829Z,7.70
2023-03-11T02:53:22.737Z,8.30
2023-03-11T02:55:50.608Z,8.00
2023-03-11T02:58:18.507Z,8.60
2023-03-11T03:00:46.719Z,8.70
2023-03-11T03:03:15.940Z,7.50
2023-03-11T03:05:44.035Z,8.70
2023-03-11T03:08:11.892Z,7.60
2023-03-11T03:10:40.255Z,8.50
2023-03-11T03:13:08.340Z,9.10
2023-03-11T03:15:36.373Z,9.10
2023-03-11T03:18:04.493Z,9.00
2023-03-11T03:20:32.849Z,9.10
2023-03-11T03:23:02.792Z,8.80
2023-03-11T03:25:32.397Z,8.30
2023-03-11T03:28:03.924Z,8.80
2023-03-11T03:30:33.831Z,8.30
2023-03-11T03:33:01.905Z,8.50
2023-03-11T03:35:30.775Z,9.00
2023-03-11T03:38:11.880Z,9.00
2023-03-11T03:40:40.113Z,8.50
2023-03-11T03:43:08.044Z,9.00
2023-03-11T03:45:36.345Z,9.00
2023-03-11T03:48:05.147Z,8.80
2023-03-11T03:50:35.009Z,8.60
2023-03-11T03:53:03.055Z,9.90
2023-03-11T03:55:30.881Z,9.00
2023-03-11T03:57:59.107Z,9.10
2023-03-11T04:00:29.635Z,9.30
2023-03-11T04:02:59.438Z,9.00
2023-03-11T04:05:34.094Z,9.00
2023-03-11T04:08:02.557Z,9.20
2023-03-11T04:10:30.635Z,8.70
2023-03-11T04:12:59.236Z,8.80
2023-03-11T04:15:27.273Z,8.80
2023-03-11T04:17:55.208Z,9.20
2023-03-11T04:20:23.960Z,9.60
2023-03-11T04:22:52.509Z,9.30
2023-03-11T04:25:21.256Z,9.20
2023-03-11T04:27:50.226Z,9.80
2023-03-11T04:30:18.770Z,9.00
2023-03-11T04:32:47.648Z,9.20
2023-03-11T04:35:15.951Z,9.80
2023-03-11T04:37:44.086Z,9.20
2023-03-11T04:40:12.866Z,9.60
2023-03-11T04:42:41.069Z,9.00
2023-03-11T04:45:11.310Z,9.00
2023-03-11T04:47:39.916Z,9.60
2023-03-11T04:50:08.587Z,9.10
2023-03-11T04:52:36.641Z,9.00
2023-03-11T04:55:05.326Z,8.50
2023-03-11T04:57:33.690Z,8.90
2023-03-11T05:00:02.506Z,8.00
2023-03-11T05:02:31.312Z,9.20
2023-03-11T05:05:00.713Z,9.00
2023-03-11T05:07:28.950Z,9.10
2023-03-11T05:09:57.213Z,8.70
2023-03-11T05:12:25.192Z,8.80
2023-03-11T05:14:53.950Z,8.70
2023-03-11T05:17:22.481Z,8.40
2023-03-11T05:19:53.889Z,8.50
2023-03-11T05:22:28.339Z,8.50
2023-03-11T05:24:56.217Z,8.40
2023-03-11T05:27:24.598Z,8.10
2023-03-11T05:29:54.730Z,8.30
2023-03-11T05:32:24.044Z,8.70
2023-03-11T05:34:52.646Z,7.70
2023-03-11T05:37:20.775Z,8.80
2023-03-11T05:39:49.366Z,7.90
2023-03-11T05:42:18.152Z,8.30
2023-03-11T05:44:47.577Z,7.70
2023-03-11T05:47:17.394Z,6.90
2023-03-11T05:49:48.904Z,8.20
2023-03-11T05:52:18.014Z,7.20
2023-03-11T05:54:50.463Z,7.50
2023-03-11T05:57:19.323Z,7.80
2023-03-11T05:59:47.155Z,5.70
2023-03-11T06:02:15.698Z,6.60
2023-03-11T06:04:44.593Z,5.90
2023-03-11T06:07:14.941Z,5.10
2023-03-11T06:09:43.715Z,4.60
2023-03-11T06:12:14.616Z,4.80
2023-03-11T06:15:02.592Z,4.00
2023-03-11T06:17:30.770Z,4.40
2023-03-11T06:19:59.224Z,4.10
2023-03-11T06:22:27.301Z,4.60
2023-03-11T06:24:55.886Z,4.30
2023-03-11T06:27:24.976Z,4.00
2023-03-11T06:29:54.573Z,4.20
2023-03-11T06:32:23.304Z,4.00
2023-03-11T06:34:53.121Z,3.40
2023-03-11T06:37:23.790Z,3.50
2023-03-11T06:39:55.562Z,3.60
2023-03-11T06:42:26.939Z,4.10
2023-03-11T06:44:56.753Z,3.60
2023-03-11T06:47:25.029Z,3.10
2023-03-11T06:49:53.713Z,3.80
2023-03-11T06:52:21.577Z,3.80
2023-03-11T06:54:49.945Z,3.80
2023-03-11T06:57:18.416Z,3.00
2023-03-11T06:59:47.691Z,3.30
2023-03-11T07:02:17.130Z,2.80
2023-03-11T07:04:45.110Z,2.70
2023-03-11T07:07:13.261Z,2.70
2023-03-11T07:09:41.415Z,3.30
2023-03-11T07:12:10.381Z,2.60
2023-03-11T07:14:38.515Z,2.70
2023-03-11T07:17:06.883Z,2.70
2023-03-11T07:19:42.844Z,2.90
2023-03-11T07:22:11.017Z,3.10
2023-03-11T07:24:38.967Z,3.00
2023-03-11T07:27:07.055Z,2.60
2023-03-11T07:29:35.013Z,3.00
2023-03-11T07:32:03.041Z,2.80
2023-03-11T07:34:33.038Z,2.90
2023-03-11T07:37:01.481Z,3.00
2023-03-11T07:39:29.685Z,2.90
2023-03-11T07:41:57.642Z,2.60
2023-03-11T07:44:32.103Z,2.80
2023-03-11T07:47:06.217Z,2.60
2023-03-11T07:49:34.436Z,3.10
2023-03-11T07:52:02.527Z,3.10
2023-03-11T07:54:30.404Z,3.30
2023-03-11T07:57:00.483Z,2.90
2023-03-11T07:59:29.330Z,3.30
2023-03-11T08:01:57.975Z,2.80
2023-03-11T08:04:25.941Z,3.40
2023-03-11T08:06:53.984Z,2.90
2023-03-11T08:09:22.285Z,2.70
2023-03-11T08:11:50.336Z,2.80
2023-03-11T08:14:18.163Z,3.00
2023-03-11T08:16:46.003Z,2.80
2023-03-11T08:19:14.775Z,2.80
2023-03-11T08:21:42.740Z,2.80
2023-03-11T08:24:13.375Z,3.20
2023-03-11T08:26:41.727Z,2.40
2023-03-11T08:29:09.654Z,2.80
2023-03-11T08:31:37.807Z,3.60
2023-03-11T08:34:08.642Z,3.70
2023-03-11T08:36:36.700Z,3.30
2023-03-11T08:39:05.187Z,3.00
2023-03-11T08:41:33.143Z,3.30
2023-03-11T08:44:01.526Z,3.40
2023-03-11T08:46:33.965Z,3.80
2023-03-11T08:49:03.469Z,3.60
2023-03-11T08:51:33.613Z,4.00
2023-03-11T08:54:03.473Z,3.50
2023-03-11T08:56:31.841Z,4.10
2023-03-11T08:58:59.723Z,4.30
2023-03-11T09:01:30.068Z,5.00
2023-03-11T09:03:58.256Z,5.10
